createdAt,value
2017-11-27T00:01:41.088Z,3.30
2017-11-27T00:04:08.615Z,3.30
2017-11-27T00:06:36.161Z,3.30
2017-11-27T00:09:03.662Z,3.30
2017-11-27T00:11:31.198Z,3.30
2017-11-27T00:13:58.701Z,3.30
2017-11-27T00:16:26.206Z,3.30
2017-11-27T00:18:53.753Z,3.30
2017-11-27T00:21:21.258Z,3.20
2017-11-27T00:23:48.779Z,3.00
2017-11-27T00:26:16.299Z,3.00
2017-11-27T00:28:44.620Z,2.70
2017-11-27T00:31:12.140Z,2.70
2017-11-27T00:33:40.414Z,2.60
2017-11-27T00:36:08.721Z,2.60
2017-11-27T00:38:36.240Z,2.50
2017-11-27T00:41:03.771Z,2.50
2017-11-27T00:43:31.290Z,2.50
2017-11-27T00:45:58.835Z,2.50
2017-11-27T00:48:27.111Z,2.60
2017-11-27T00:50:55.382Z,2.60
2017-11-27T00:53:23.681Z,2.70
2017-11-27T00:55:51.212Z,2.70
2017-11-27T00:58:19.520Z,2.80
2017-11-27T01:00:47.030Z,2.80
2017-11-27T01:03:14.554Z,2.80
2017-11-27T01:05:42.066Z,2.70
2017-11-27T01:08:10.365Z,2.60
2017-11-27T01:10:37.885Z,2.70
2017-11-27T01:13:05.389Z,2.60
2017-11-27T01:15:32.914Z,2.60
2017-11-27T01:18:01.205Z,2.60
2017-11-27T01:20:28.737Z,2.60
2017-11-27T01:22:56.261Z,2.70
2017-11-27T01:25:23.790Z,2.70
2017-11-27T01:27:51.312Z,2.70
2017-11-27T01:30:19.601Z,2.80
2017-11-27T01:32:47.902Z,2.80
2017-11-27T01:35:15.426Z,2.80
2017-11-27T01:37:42.962Z,2.90
2017-11-27T01:40:10.478Z,3.00
2017-11-27T01:42:37.990Z,3.10
2017-11-27T01:45:05.528Z,2.90
2017-11-27T01:47:33.052Z,2.90
2017-11-27T01:50:00.605Z,2.90
2017-11-27T01:52:28.119Z,2.90
2017-11-27T01:54:55.624Z,2.90
2017-11-27T01:57:23.145Z,2.90
2017-11-27T01:59:51.427Z,2.90
2017-11-27T02:02:18.957Z,2.90
2017-11-27T02:04:46.481Z,3.00
2017-11-27T02:07:13.990Z,3.00
2017-11-27T02:09:41.525Z,3.10
2017-11-27T02:12:09.384Z,3.00
2017-11-27T02:14:36.932Z,3.10
2017-11-27T02:17:04.499Z,3.10
2017-11-27T02:19:32.051Z,3.10
2017-11-27T02:21:59.563Z,3.10
2017-11-27T02:24:27.092Z,3.00
2017-11-27T02:26:54.735Z,3.10
2017-11-27T02:29:22.241Z,3.20
2017-11-27T02:31:49.778Z,3.30
2017-11-27T02:34:17.291Z,3.30
2017-11-27T02:36:44.815Z,3.40
2017-11-27T02:39:12.341Z,3.40
2017-11-27T02:41:39.867Z,3.40
2017-11-27T02:44:07.404Z,3.30
2017-11-27T02:46:35.696Z,3.40
2017-11-27T02:49:03.240Z,3.40
2017-11-27T02:51:30.781Z,3.40
2017-11-27T02:53:58.291Z,3.30
2017-11-27T02:56:26.038Z,3.30
2017-11-27T02:58:53.545Z,3.40
2017-11-27T03:01:21.092Z,3.40
2017-11-27T03:03:48.597Z,3.40
2017-11-27T03:06:16.912Z,3.50
2017-11-27T03:08:44.701Z,3.50
2017-11-27T03:11:12.220Z,3.50
2017-11-27T03:13:39.767Z,3.60
2017-11-27T03:16:07.272Z,3.60
2017-11-27T03:18:34.824Z,3.60
2017-11-27T03:21:02.334Z,3.60
2017-11-27T03:23:29.910Z,3.60
2017-11-27T03:25:57.432Z,3.70
2017-11-27T03:28:24.992Z,3.70
2017-11-27T03:30:52.524Z,3.70
2017-11-27T03:33:20.080Z,3.70
2017-11-27T03:35:47.619Z,3.70
2017-11-27T03:38:15.143Z,3.70
2017-11-27T03:40:43.438Z,3.60
2017-11-27T03:43:10.950Z,3.60
2017-11-27T03:45:38.488Z,3.60
2017-11-27T03:48:06.023Z,3.60
2017-11-27T03:50:33.534Z,3.70
2017-11-27T03:53:01.057Z,3.70
2017-11-27T03:55:28.570Z,3.70
2017-11-27T03:57:56.875Z,3.70
2017-11-27T04:00:24.377Z,3.70
2017-11-27T04:02:52.680Z,3.80
2017-11-27T04:05:20.989Z,3.80
2017-11-27T04:07:48.508Z,3.80
2017-11-27T04:10:16.886Z,3.90
2017-11-27T04:12:45.182Z,3.90
2017-11-27T04:15:12.707Z,3.80
2017-11-27T04:17:40.257Z,3.90
2017-11-27T04:20:07.803Z,3.90
2017-11-27T04:22:35.327Z,3.90
2017-11-27T04:25:02.838Z,3.90
2017-11-27T04:27:30.386Z,3.90
2017-11-27T04:29:58.676Z,3.90
2017-11-27T04:32:26.212Z,3.80
2017-11-27T04:34:53.729Z,3.80
2017-11-27T04:37:21.275Z,3.80
2017-11-27T04:39:49.565Z,3.60
2017-11-27T04:42:17.070Z,3.60
2017-11-27T04:44:45.371Z,3.60
2017-11-27T04:47:12.871Z,3.60
2017-11-27T04:49:40.398Z,3.50
2017-11-27T04:52:08.664Z,3.50
2017-11-27T04:54:36.974Z,3.40
2017-11-27T04:57:04.474Z,3.40
2017-11-27T04:59:31.978Z,3.40
2017-11-27T05:01:59.518Z,3.40
2017-11-27T05:04:27.792Z,3.40
2017-11-27T05:06:56.082Z,3.40
2017-11-27T05:09:24.368Z,3.40
2017-11-27T05:11:51.893Z,3.40
2017-11-27T05:14:19.412Z,3.40
2017-11-27T05:16:46.946Z,3.40
2017-11-27T05:19:14.454Z,3.40
2017-11-27T05:21:41.958Z,3.40
2017-11-27T05:24:09.476Z,3.40
2017-11-27T05:26:36.997Z,3.30
2017-11-27T05:29:04.536Z,3.30
2017-11-27T05:31:32.042Z,3.30
2017-11-27T05:33:59.556Z,3.20
2017-11-27T05:36:27.102Z,3.30
2017-11-27T05:38:54.656Z,3.20
2017-11-27T05:41:22.926Z,3.20
2017-11-27T05:43:51.194Z,3.20
2017-11-27T05:46:19.505Z,3.20
2017-11-27T05:48:47.033Z,3.20
2017-11-27T05:51:15.329Z,3.30
2017-11-27T05:53:42.843Z,3.20
2017-11-27T05:56:10.378Z,3.30
2017-11-27T05:58:37.903Z,3.30
2017-11-27T06:01:05.424Z,3.30
2017-11-27T06:03:32.960Z,3.30
2017-11-27T06:06:00.599Z,3.30
2017-11-27T06:08:28.134Z,3.30
2017-11-27T06:10:55.656Z,3.30
2017-11-27T06:13:23.968Z,3.40
2017-11-27T06:15:52.242Z,3.30
2017-11-27T06:18:20.539Z,3.30
2017-11-27T06:20:48.069Z,3.30
2017-11-27T06:23:16.333Z,3.30
2017-11-27T06:25:43.872Z,3.30
2017-11-27T06:28:11.389Z,3.20
2017-11-27T06:30:38.918Z,3.20
2017-11-27T06:33:07.194Z,3.20
2017-11-27T06:35:35.481Z,3.30
2017-11-27T06:38:03.005Z,3.30
2017-11-27T06:40:30.516Z,3.30
2017-11-27T06:42:58.045Z,3.50
2017-11-27T06:45:26.340Z,3.50
2017-11-27T06:47:53.861Z,3.50
2017-11-27T06:50:21.380Z,3.50
2017-11-27T06:52:48.928Z,3.50
2017-11-27T06:55:16.429Z,3.60
2017-11-27T06:57:43.949Z,3.60
2017-11-27T07:00:11.488Z,3.60
2017-11-27T07:02:38.998Z,3.70
2017-11-27T07:05:06.547Z,3.60
2017-11-27T07:07:34.059Z,3.60
2017-11-27T07:10:01.614Z,3.60
2017-11-27T07:12:30.306Z,3.70
2017-11-27T07:14:57.834Z,3.70
2017-11-27T07:17:25.370Z,3.70
2017-11-27T07:19:52.894Z,3.80
2017-11-27T07:22:20.431Z,3.90
2017-11-27T07:24:48.715Z,4.00
2017-11-27T07:27:16.246Z,4.00
2017-11-27T07:29:43.746Z,4.00
2017-11-27T07:32:11.273Z,4.00
2017-11-27T07:34:39.576Z,4.10
2017-11-27T07:37:07.083Z,4.10
2017-11-27T07:39:40.432Z,4.10
2017-11-27T07:42:07.957Z,4.20
2017-11-27T07:44:36.250Z,4.20
2017-11-27T07:47:04.516Z,4.20
2017-11-27T07:49:32.802Z,4.20
2017-11-27T07:52:01.079Z,4.30
2017-11-27T07:54:29.370Z,4.30
2017-11-27T07:56:56.899Z,4.30
2017-11-27T07:59:25.183Z,4.30
2017-11-27T08:01:53.478Z,4.30
2017-11-27T08:04:21.009Z,4.30
2017-11-27T08:06:49.301Z,4.30
2017-11-27T08:09:17.565Z,4.30
2017-11-27T08:11:45.881Z,4.30
2017-11-27T08:14:13.390Z,4.30
2017-11-27T08:16:41.685Z,4.30
2017-11-27T08:19:09.228Z,4.30
2017-11-27T08:21:37.496Z,4.40
2017-11-27T08:24:05.041Z,4.40
2017-11-27T08:26:32.541Z,4.40
2017-11-27T08:29:00.854Z,4.40
2017-11-27T08:31:28.372Z,4.30
2017-11-27T08:33:56.649Z,4.30
2017-11-27T08:36:24.942Z,4.30
2017-11-27T08:38:52.442Z,4.30
2017-11-27T08:41:19.988Z,4.30
2017-11-27T08:43:47.498Z,4.30
2017-11-27T08:46:14.997Z,4.20
2017-11-27T08:48:42.536Z,4.20
2017-11-27T08:51:10.056Z,4.20
2017-11-27T08:53:38.366Z,4.30
2017-11-27T08:56:05.897Z,4.30
2017-11-27T08:58:34.169Z,4.40
2017-11-27T09:01:02.466Z,4.50
2017-11-27T09:03:30.752Z,4.60
2017-11-27T09:05:58.281Z,4.50
2017-11-27T09:08:25.801Z,4.60
2017-11-27T09:10:53.333Z,4.70
2017-11-27T09:13:20.854Z,4.70
2017-11-27T09:15:48.372Z,4.70
2017-11-27T09:18:15.896Z,4.70
2017-11-27T09:20:43.413Z,4.80
2017-11-27T09:23:10.941Z,4.90
2017-11-27T09:25:38.481Z,4.90
2017-11-27T09:28:06.005Z,4.90
2017-11-27T09:30:33.556Z,4.90
2017-11-27T09:33:01.081Z,5.00
2017-11-27T09:35:28.581Z,4.90
2017-11-27T09:37:56.114Z,4.80
2017-11-27T09:40:23.618Z,4.80
2017-11-27T09:42:51.150Z,4.80
2017-11-27T09:45:18.659Z,4.80
2017-11-27T09:47:46.181Z,4.80
2017-11-27T09:50:14.474Z,4.70
2017-11-27T09:52:41.978Z,4.70
2017-11-27T09:55:09.524Z,4.70
2017-11-27T09:57:37.040Z,4.70
2017-11-27T10:00:05.332Z,4.60
2017-11-27T10:02:32.880Z,4.60
2017-11-27T10:05:00.386Z,4.60
2017-11-27T10:07:27.945Z,4.60
2017-11-27T10:09:55.452Z,4.50
2017-11-27T10:12:23.718Z,4.60
2017-11-27T10:14:52.014Z,4.60
2017-11-27T10:17:19.517Z,4.50
2017-11-27T10:19:47.061Z,4.60
2017-11-27T10:22:14.589Z,4.50
2017-11-27T10:24:42.095Z,4.50
2017-11-27T10:27:09.637Z,4.40
2017-11-27T10:29:37.142Z,4.50
2017-11-27T10:32:05.426Z,4.50
2017-11-27T10:34:33.709Z,4.40
2017-11-27T10:37:01.261Z,4.40
2017-11-27T10:39:29.538Z,4.40
2017-11-27T10:41:57.801Z,4.60
2017-11-27T10:44:26.085Z,4.60
2017-11-27T10:46:54.369Z,4.60
2017-11-27T10:49:22.652Z,4.60
2017-11-27T10:51:50.152Z,4.60
2017-11-27T10:54:17.703Z,4.50
2017-11-27T10:56:45.224Z,4.60
2017-11-27T10:59:12.727Z,4.60
2017-11-27T11:01:40.276Z,4.60
2017-11-27T11:04:07.793Z,4.70
2017-11-27T11:06:36.088Z,4.80
2017-11-27T11:09:03.613Z,4.80
2017-11-27T11:11:31.163Z,4.80
2017-11-27T11:13:58.667Z,4.80
2017-11-27T11:16:26.189Z,4.80
2017-11-27T11:18:54.497Z,4.90
2017-11-27T11:21:22.006Z,4.80
2017-11-27T11:23:49.525Z,4.70
2017-11-27T11:26:17.044Z,4.70
2017-11-27T11:28:45.342Z,4.80
2017-11-27T11:31:12.860Z,4.80
2017-11-27T11:33:40.367Z,4.80
2017-11-27T11:36:07.894Z,4.80
2017-11-27T11:38:36.169Z,5.00
2017-11-27T11:41:04.488Z,4.90
2017-11-27T11:43:32.024Z,4.90
2017-11-27T11:45:59.553Z,5.00
2017-11-27T11:48:27.078Z,5.00
2017-11-27T11:50:54.611Z,4.80
2017-11-27T11:53:22.139Z,4.70
2017-11-27T11:55:50.456Z,4.80
2017-11-27T11:58:17.988Z,4.80
2017-11-27T12:00:45.520Z,4.70
2017-11-27T12:03:13.052Z,4.60
2017-11-27T12:05:40.554Z,4.60
2017-11-27T12:08:08.856Z,4.50
2017-11-27T12:10:36.371Z,4.50
2017-11-27T12:13:03.905Z,4.60
2017-11-27T12:15:31.406Z,4.50
2017-11-27T12:17:59.697Z,4.50
2017-11-27T12:20:27.240Z,4.50
2017-11-27T12:22:55.525Z,4.50
2017-11-27T12:25:23.833Z,4.50
2017-11-27T12:27:51.334Z,4.50
2017-11-27T12:30:18.866Z,4.50
2017-11-27T12:32:46.397Z,4.50
2017-11-27T12:35:13.906Z,4.50
2017-11-27T12:37:41.426Z,4.50
2017-11-27T12:40:08.930Z,4.50
2017-11-27T12:42:36.483Z,4.60
2017-11-27T12:45:04.000Z,4.70
2017-11-27T12:47:31.530Z,4.70
2017-11-27T12:49:59.812Z,4.70
2017-11-27T12:52:27.313Z,4.70
2017-11-27T12:54:54.834Z,4.70
2017-11-27T12:57:22.377Z,4.70
2017-11-27T12:59:49.928Z,4.60
2017-11-27T13:02:18.198Z,4.70
2017-11-27T13:04:46.522Z,4.80
2017-11-27T13:07:14.050Z,4.80
2017-11-27T13:09:41.577Z,4.80
2017-11-27T13:12:09.112Z,4.80
2017-11-27T13:14:36.637Z,4.70
2017-11-27T13:17:04.170Z,4.60
2017-11-27T13:19:32.446Z,4.50
2017-11-27T13:22:00.764Z,4.50
2017-11-27T13:24:28.322Z,4.40
2017-11-27T13:26:55.822Z,4.50
2017-11-27T13:29:23.364Z,4.50
2017-11-27T13:31:50.894Z,4.50
2017-11-27T13:34:18.460Z,4.50
2017-11-27T13:36:45.975Z,4.60
2017-11-27T13:39:14.283Z,4.70
2017-11-27T13:41:41.809Z,4.60
2017-11-27T13:44:10.087Z,4.70
2017-11-27T13:46:38.404Z,4.60
2017-11-27T13:49:05.906Z,4.60
2017-11-27T13:51:33.449Z,4.60
2017-11-27T13:54:00.950Z,4.70
2017-11-27T13:56:28.516Z,4.70
2017-11-27T13:58:56.032Z,4.70
2017-11-27T14:01:23.564Z,4.70
2017-11-27T14:03:51.104Z,4.70
2017-11-27T14:06:18.646Z,4.70
2017-11-27T14:08:46.187Z,4.70
2017-11-27T14:11:14.454Z,4.70
2017-11-27T14:13:41.994Z,4.60
2017-11-27T14:16:09.493Z,4.70
2017-11-27T14:18:37.780Z,4.70
2017-11-27T14:21:05.331Z,4.70
2017-11-27T14:23:32.856Z,4.70
2017-11-27T14:26:00.395Z,4.60
2017-11-27T14:28:27.923Z,4.60
2017-11-27T14:30:55.497Z,4.50
2017-11-27T14:33:23.022Z,4.40
2017-11-27T14:35:51.290Z,4.40
2017-11-27T14:38:19.579Z,4.50
2017-11-27T14:40:47.100Z,4.50
2017-11-27T14:43:14.640Z,4.50
2017-11-27T14:45:42.165Z,4.50
2017-11-27T14:48:09.728Z,4.50
2017-11-27T14:50:37.253Z,4.60
2017-11-27T14:53:05.550Z,4.60
2017-11-27T14:55:33.074Z,4.50
2017-11-27T14:58:00.593Z,4.60
2017-11-27T15:00:28.120Z,4.70
2017-11-27T15:02:56.395Z,4.70
2017-11-27T15:05:24.712Z,4.80
2017-11-27T15:07:52.220Z,4.80
2017-11-27T15:10:20.527Z,4.90
2017-11-27T15:12:48.314Z,4.90
2017-11-27T15:15:15.845Z,4.90
2017-11-27T15:17:43.414Z,5.00
2017-11-27T15:20:10.949Z,5.10
2017-11-27T15:22:38.507Z,5.30
2017-11-27T15:25:06.047Z,5.40
2017-11-27T15:27:33.605Z,5.50
2017-11-27T15:30:01.888Z,5.50
2017-11-27T15:32:29.417Z,5.50
2017-11-27T15:34:56.938Z,5.50
2017-11-27T15:37:24.444Z,5.50
2017-11-27T15:39:51.969Z,5.60
2017-11-27T15:42:19.508Z,5.60
2017-11-27T15:44:47.063Z,5.60
2017-11-27T15:47:14.720Z,5.60
2017-11-27T15:49:43.011Z,5.70
2017-11-27T15:52:10.539Z,5.70
2017-11-27T15:54:38.836Z,5.80
2017-11-27T15:57:06.382Z,5.80
2017-11-27T15:59:33.920Z,5.90
2017-11-27T16:02:02.228Z,5.90
2017-11-27T16:04:30.502Z,6.00
2017-11-27T16:06:58.857Z,6.00
2017-11-27T16:09:26.380Z,6.00
2017-11-27T16:11:53.926Z,6.00
2017-11-27T16:14:21.450Z,6.10
2017-11-27T16:16:49.761Z,6.10
2017-11-27T16:19:17.319Z,6.10
2017-11-27T16:21:44.835Z,6.10
2017-11-27T16:24:13.167Z,6.10
2017-11-27T16:26:40.687Z,6.10
2017-11-27T16:29:08.288Z,6.10
2017-11-27T16:31:35.813Z,6.10
2017-11-27T16:34:03.427Z,6.10
2017-11-27T16:36:30.967Z,6.10
2017-11-27T16:38:58.526Z,6.10
2017-11-27T16:41:26.070Z,6.10
2017-11-27T16:43:53.596Z,6.10
2017-11-27T16:46:21.898Z,6.10
2017-11-27T16:48:49.438Z,6.10
2017-11-27T16:51:17.718Z,6.10
2017-11-27T16:53:46.029Z,6.10
2017-11-27T16:56:13.561Z,6.10
2017-11-27T16:58:41.102Z,6.10
2017-11-27T17:01:08.622Z,6.10
2017-11-27T17:03:36.136Z,6.10
2017-11-27T17:06:04.445Z,6.10
2017-11-27T17:08:31.950Z,6.10
2017-11-27T17:10:59.502Z,6.10
2017-11-27T17:13:27.015Z,6.10
2017-11-27T17:15:54.569Z,6.10
2017-11-27T17:18:23.845Z,6.20
2017-11-27T17:20:52.136Z,6.20
2017-11-27T17:23:19.681Z,6.20
2017-11-27T17:25:48.067Z,6.20
2017-11-27T17:28:15.614Z,6.20
2017-11-27T17:30:43.915Z,6.20
2017-11-27T17:33:11.464Z,6.20
2017-11-27T17:35:39.007Z,6.30
2017-11-27T17:38:07.291Z,6.30
2017-11-27T17:40:34.844Z,6.30
2017-11-27T17:43:03.137Z,6.30
2017-11-27T17:45:30.682Z,6.30
2017-11-27T17:47:58.244Z,6.40
2017-11-27T17:50:26.536Z,6.50
2017-11-27T17:52:54.071Z,6.40
2017-11-27T17:55:22.369Z,6.50
2017-11-27T17:57:49.936Z,6.50
2017-11-27T18:00:17.459Z,6.50
2017-11-27T18:02:46.503Z,6.50
2017-11-27T18:05:14.018Z,6.50
2017-11-27T18:07:42.314Z,6.50
2017-11-27T18:10:09.853Z,6.50
2017-11-27T18:12:38.285Z,6.60
2017-11-27T18:15:05.842Z,6.60
2017-11-27T18:17:33.391Z,6.60
2017-11-27T18:20:00.930Z,6.60
2017-11-27T18:22:28.450Z,6.60
2017-11-27T18:24:55.959Z,6.60
2017-11-27T18:27:23.537Z,6.50
2017-11-27T18:29:51.045Z,6.50
2017-11-27T18:32:19.360Z,6.30
2017-11-27T18:34:46.873Z,6.30
2017-11-27T18:37:14.438Z,6.30
2017-11-27T18:39:41.950Z,6.30
2017-11-27T18:42:09.479Z,6.30
2017-11-27T18:44:37.793Z,6.30
2017-11-27T18:47:05.364Z,6.30
2017-11-27T18:49:32.905Z,6.40
2017-11-27T18:52:00.436Z,6.40
2017-11-27T18:54:28.005Z,6.40
2017-11-27T18:56:55.533Z,6.40
2017-11-27T18:59:23.043Z,6.40
2017-11-27T19:01:50.583Z,6.20
2017-11-27T19:04:18.115Z,6.20
2017-11-27T19:06:46.412Z,6.20
2017-11-27T19:09:13.951Z,6.20
2017-11-27T19:11:42.242Z,6.20
2017-11-27T19:14:09.776Z,6.20
2017-11-27T19:16:37.304Z,6.30
2017-11-27T19:19:04.838Z,6.30
2017-11-27T19:21:32.361Z,6.30
2017-11-27T19:23:59.920Z,6.40
2017-11-27T19:26:27.452Z,6.50
2017-11-27T19:28:55.014Z,6.50
2017-11-27T19:31:22.523Z,6.50
2017-11-27T19:33:50.066Z,6.60
2017-11-27T19:36:18.390Z,6.60
2017-11-27T19:38:45.921Z,6.60
2017-11-27T19:41:13.734Z,6.60
2017-11-27T19:43:41.251Z,6.60
2017-11-27T19:46:08.821Z,6.40
2017-11-27T19:48:36.364Z,6.30
2017-11-27T19:51:03.887Z,6.20
2017-11-27T19:53:31.429Z,6.10
2017-11-27T19:55:58.933Z,6.00
2017-11-27T19:58:26.467Z,6.00
2017-11-27T20:00:53.981Z,6.00
2017-11-27T20:03:21.528Z,6.00
2017-11-27T20:05:49.057Z,6.00
2017-11-27T20:08:17.350Z,6.00
2017-11-27T20:10:44.907Z,6.00
2017-11-27T20:13:13.201Z,6.00
2017-11-27T20:15:40.750Z,5.90
2017-11-27T20:18:08.258Z,6.00
2017-11-27T20:20:35.782Z,6.00
2017-11-27T20:23:03.293Z,6.00
2017-11-27T20:25:31.613Z,6.00
2017-11-27T20:27:59.153Z,6.00
2017-11-27T20:30:26.684Z,6.00
2017-11-27T20:32:54.222Z,6.00
2017-11-27T20:35:21.730Z,5.90
2017-11-27T20:37:50.122Z,5.90
2017-11-27T20:40:17.626Z,5.90
2017-11-27T20:42:45.182Z,5.90
2017-11-27T20:45:12.698Z,5.90
2017-11-27T20:47:40.220Z,6.00
2017-11-27T20:50:07.764Z,6.10
2017-11-27T20:52:35.270Z,6.10
2017-11-27T20:55:02.803Z,6.10
2017-11-27T20:57:30.313Z,6.20
2017-11-27T20:59:57.876Z,6.10
2017-11-27T21:02:25.401Z,6.20
2017-11-27T21:04:53.697Z,6.20
2017-11-27T21:07:21.226Z,6.20
2017-11-27T21:09:49.524Z,6.30
2017-11-27T21:12:17.068Z,6.30
2017-11-27T21:14:45.350Z,6.30
2017-11-27T21:17:13.641Z,6.30
2017-11-27T21:19:41.146Z,6.30
2017-11-27T21:22:08.690Z,6.30
2017-11-27T21:24:36.210Z,6.30
2017-11-27T21:27:03.803Z,6.30
2017-11-27T21:29:31.309Z,6.30
2017-11-27T21:31:58.844Z,6.30
2017-11-27T21:34:26.371Z,6.20
2017-11-27T21:36:53.900Z,6.10
2017-11-27T21:39:22.214Z,6.10
2017-11-27T21:41:49.745Z,6.10
2017-11-27T21:44:17.278Z,6.00
2017-11-27T21:46:44.792Z,6.00
2017-11-27T21:49:12.317Z,6.00
2017-11-27T21:51:40.648Z,5.90
2017-11-27T21:54:08.139Z,5.90
2017-11-27T21:56:36.448Z,5.80
2017-11-27T21:59:03.997Z,5.80
2017-11-27T22:01:31.538Z,5.80
2017-11-27T22:03:59.835Z,5.80
2017-11-27T22:06:27.359Z,5.80
2017-11-27T22:08:54.907Z,5.80
2017-11-27T22:11:22.414Z,5.80
2017-11-27T22:13:50.711Z,5.80
2017-11-27T22:16:18.234Z,5.80
2017-11-27T22:18:46.657Z,5.70
2017-11-27T22:21:14.214Z,5.70
2017-11-27T22:23:41.737Z,5.70
2017-11-27T22:26:10.045Z,5.70
2017-11-27T22:28:37.549Z,5.70
2017-11-27T22:31:05.091Z,5.70
2017-11-27T22:33:32.617Z,5.70
2017-11-27T22:36:00.168Z,5.70
2017-11-27T22:38:27.690Z,5.80
2017-11-27T22:40:55.197Z,5.80
2017-11-27T22:43:22.739Z,5.90
2017-11-27T22:45:50.280Z,5.90
2017-11-27T22:48:18.597Z,5.10
2017-11-27T22:50:46.116Z,5.10
2017-11-27T22:53:13.725Z,4.80
2017-11-27T22:55:41.254Z,4.70
2017-11-27T22:58:09.576Z,4.80
2017-11-27T23:00:37.077Z,4.80
2017-11-27T23:03:05.360Z,4.90
2017-11-27T23:05:33.671Z,4.90
2017-11-27T23:08:01.192Z,4.90
2017-11-27T23:10:29.502Z,4.90
2017-11-27T23:12:57.313Z,4.90
2017-11-27T23:15:24.842Z,4.90
2017-11-27T23:17:52.349Z,4.90
2017-11-27T23:20:20.651Z,4.90
2017-11-27T23:22:48.153Z,4.80
2017-11-27T23:25:15.674Z,4.90
2017-11-27T23:27:43.212Z,4.80
2017-11-27T23:30:11.510Z,4.80
2017-11-27T23:32:39.048Z,4.80
2017-11-27T23:35:07.381Z,4.80
2017-11-27T23:37:34.900Z,4.80
2017-11-27T23:40:02.433Z,4.80
2017-11-27T23:42:30.725Z,4.80
2017-11-27T23:44:59.049Z,4.70
2017-11-27T23:47:26.538Z,4.80
2017-11-27T23:49:54.853Z,4.80
2017-11-27T23:52:22.359Z,4.70
2017-11-27T23:54:49.890Z,4.80
2017-11-27T23:57:17.390Z,4.80
2017-11-27T23:59:44.911Z,4.80
